Time;durP1;ratioP1;P1;durP2;ratioP2;P2;SDS_P1;SDS_P2;PMS_P1;PMS_P2;Temp;Humidity;BMP_temperature;BMP_pressure;BME280_temperature;BME280_humidity;BME280_pressure;Samples;Min_cycle;Max_cycle;Signal;HPM_P1;HPM_P2
2023/03/13 00:02:11;;;;;;;34.83;5.03;;;8.70;99.90;;;;;;4991996;28;20042;-77
2023/03/13 00:04:37;;;;;;;34.80;5.28;;;8.60;99.90;;;;;;4992033;28;20042;-75
2023/03/13 00:07:03;;;;;;;33.67;5.43;;;8.50;99.90;;;;;;5007102;28;20050;-76
2023/03/13 00:09:29;;;;;;;32.67;6.00;;;8.50;99.90;;;;;;4991066;28;20529;-77
2023/03/13 00:11:55;;;;;;;34.85;5.40;;;8.40;99.90;;;;;;4991723;28;20096;-76
2023/03/13 00:14:21;;;;;;;34.15;5.30;;;9.10;99.90;;;;;;4991570;28;20053;-76
2023/03/13 00:16:47;;;;;;;34.33;5.90;;;8.40;99.90;;;;;;4990788;28;20094;-76
2023/03/13 00:19:13;;;;;;;30.30;5.88;;;9.00;99.90;;;;;;4991424;28;20051;-77
2023/03/13 00:21:40;;;;;;;30.40;5.50;;;8.40;99.90;;;;;;4991551;28;20046;-77
2023/03/13 00:24:08;;;;;;;37.92;6.35;;;8.40;99.90;;;;;;4991166;28;20708;-76
2023/03/13 00:26:34;;;;;;;35.95;5.18;;;8.30;99.90;;;;;;4990954;28;20564;-77
2023/03/13 00:28:59;;;;;;;43.45;6.78;;;8.40;99.90;;;;;;4972049;28;20077;-77
2023/03/13 00:31:26;;;;;;;38.78;5.35;;;8.80;99.90;;;;;;4971607;28;20375;-77
2023/03/13 00:33:54;;;;;;;31.83;6.63;;;8.30;99.90;;;;;;4990644;28;20057;-76
2023/03/13 00:36:23;;;;;;;32.63;6.45;;;8.30;99.90;;;;;;4990954;28;20112;-76
2023/03/13 00:38:51;;;;;;;33.85;5.55;;;8.30;99.90;;;;;;4990642;28;20053;-77
2023/03/13 00:41:19;;;;;;;31.75;5.45;;;8.30;99.90;;;;;;4991015;28;20121;-77
2023/03/13 00:43:46;;;;;;;31.67;6.22;;;8.30;99.90;;;;;;4990787;28;20053;-76
2023/03/13 00:46:15;;;;;;;43.03;6.47;;;8.30;99.90;;;;;;4990849;28;20050;-76
2023/03/13 00:48:40;;;;;;;32.08;5.63;;;8.30;99.90;;;;;;4991204;28;20046;-76
2023/03/13 00:51:08;;;;;;;40.55;6.80;;;8.30;99.90;;;;;;4990971;28;20509;-76
2023/03/13 00:53:34;;;;;;;37.95;7.43;;;8.30;99.90;;;;;;4990575;28;20150;-77
2023/03/13 00:56:04;;;;;;;35.40;6.55;;;8.30;99.90;;;;;;4989782;28;20494;-77
2023/03/13 00:58:32;;;;;;;38.80;6.05;;;8.30;99.90;;;;;;4990654;28;20058;-76
2023/03/13 01:01:12;;;;;;;36.13;5.97;;;8.30;99.90;;;;;;4991019;28;20069;-76
2023/03/13 01:03:40;;;;;;;33.38;6.78;;;8.30;99.90;;;;;;4990699;28;20057;-76
2023/03/13 01:06:09;;;;;;;35.63;6.22;;;8.30;99.90;;;;;;4990806;28;20130;-77
2023/03/13 01:08:35;;;;;;;35.13;6.25;;;8.30;99.90;;;;;;4990885;28;20129;-76
2023/03/13 01:11:04;;;;;;;33.58;6.40;;;8.40;99.90;;;;;;4990815;28;20394;-77
2023/03/13 01:13:34;;;;;;;36.70;6.47;;;8.40;99.90;;;;;;4990689;28;20043;-76
2023/03/13 01:16:04;;;;;;;31.88;6.45;;;8.30;99.90;;;;;;4973004;28;20092;-77
2023/03/13 01:18:30;;;;;;;39.95;6.55;;;8.40;99.90;;;;;;4990649;28;20042;-76
2023/03/13 01:20:56;;;;;;;40.88;7.15;;;8.40;99.90;;;;;;4989853;28;20054;-76
2023/03/13 01:23:22;;;;;;;36.63;6.05;;;8.40;99.90;;;;;;4990344;28;20184;-77
2023/03/13 01:25:47;;;;;;;36.15;6.20;;;8.40;99.90;;;;;;4990092;28;20046;-76
2023/03/13 01:28:13;;;;;;;29.48;5.47;;;8.40;99.90;;;;;;4990352;28;20112;-76
2023/03/13 01:30:39;;;;;;;31.08;6.85;;;8.40;99.90;;;;;;4990624;28;20445;-79
2023/03/13 01:33:04;;;;;;;40.55;6.97;;;8.50;99.90;;;;;;4990229;28;20403;-77
2023/03/13 01:35:30;;;;;;;28.20;6.10;;;8.40;99.90;;;;;;4973040;28;20121;-77
2023/03/13 01:37:56;;;;;;;35.53;5.88;;;8.80;99.90;;;;;;4990376;28;20065;-76
2023/03/13 01:40:21;;;;;;;29.88;5.45;;;8.40;99.90;;;;;;4990283;28;20608;-76
2023/03/13 01:42:51;;;;;;;37.47;6.22;;;8.40;99.90;;;;;;4990460;28;20559;-76
2023/03/13 01:46:05;;;;;;;25.17;6.18;;;8.70;99.90;;;;;;4990604;28;20038;-76
2023/03/13 01:48:36;;;;;;;35.55;6.13;;;8.40;99.90;;;;;;4977488;28;20193;-75
2023/03/13 01:51:07;;;;;;;28.90;5.88;;;8.50;99.90;;;;;;4990166;28;20054;-75
2023/03/13 01:53:35;;;;;;;33.53;5.82;;;8.40;99.90;;;;;;4972744;28;20101;-78
2023/03/13 01:56:05;;;;;;;33.08;5.25;;;8.50;99.90;;;;;;4990007;28;20085;-76
2023/03/13 01:58:31;;;;;;;29.08;5.47;;;8.50;99.90;;;;;;4990238;28;20054;-76
2023/03/13 02:00:58;;;;;;;33.30;5.75;;;8.50;99.90;;;;;;4990296;28;20047;-76
2023/03/13 02:03:25;;;;;;;31.67;5.97;;;8.50;99.90;;;;;;4989765;28;20612;-77
2023/03/13 02:05:51;;;;;;;34.95;5.88;;;8.50;99.90;;;;;;4990056;28;20086;-78
2023/03/13 02:08:35;;;;;;;24.33;6.03;;;8.50;99.90;;;;;;4990232;28;20167;-76
2023/03/13 02:11:24;;;;;;;26.48;5.03;;;8.90;99.90;;;;;;4972597;28;20046;-77
2023/03/13 02:13:50;;;;;;;30.65;5.15;;;8.60;99.90;;;;;;4990175;28;20054;-77
2023/03/13 02:16:17;;;;;;;22.73;5.00;;;9.10;99.90;;;;;;4990064;28;20050;-77
2023/03/13 02:18:43;;;;;;;30.33;5.20;;;9.00;99.90;;;;;;4972693;28;20082;-77
2023/03/13 02:21:34;;;;;;;26.38;4.95;;;8.60;99.90;;;;;;4990461;28;20081;-78
2023/03/13 02:24:14;;;;;;;22.95;6.13;;;8.60;99.90;;;;;;4989635;28;20066;-78
2023/03/13 02:26:40;;;;;;;28.73;5.07;;;8.60;99.90;;;;;;4989730;28;20042;-78
2023/03/13 02:29:06;;;;;;;21.67;4.65;;;8.50;99.90;;;;;;4989505;28;20049;-77
2023/03/13 02:31:32;;;;;;;22.77;4.93;;;8.50;99.90;;;;;;4991477;28;20409;-80
2023/03/13 02:34:00;;;;;;;26.95;4.85;;;8.60;99.90;;;;;;4993625;28;20112;-78
2023/03/13 02:36:28;;;;;;;21.92;4.45;;;8.60;99.90;;;;;;4993090;28;20487;-78
2023/03/13 02:39:03;;;;;;;25.83;5.18;;;8.80;99.90;;;;;;4993321;28;20046;-78
2023/03/13 02:41:30;;;;;;;20.20;4.15;;;8.60;99.90;;;;;;4975854;28;20421;-77
2023/03/13 02:43:55;;;;;;;21.23;5.07;;;8.90;99.90;;;;;;4993428;28;20112;-78
2023/03/13 02:46:21;;;;;;;21.83;4.18;;;8.70;99.90;;;;;;4975809;28;20856;-78
2023/03/13 02:48:50;;;;;;;15.82;3.75;;;8.60;99.90;;;;;;4993318;28;20426;-78
2023/03/13 02:51:24;;;;;;;21.20;4.00;;;9.10;99.90;;;;;;4993051;28;20089;-77
2023/03/13 02:53:52;;;;;;;22.05;4.88;;;8.60;99.90;;;;;;4975900;28;20453;-80
2023/03/13 02:56:23;;;;;;;14.60;4.28;;;8.70;99.90;;;;;;4992672;28;20050;-79
2023/03/13 02:58:48;;;;;;;15.45;4.13;;;8.60;99.90;;;;;;4992875;28;20129;-78
2023/03/13 03:01:14;;;;;;;13.75;4.15;;;8.70;99.90;;;;;;4992471;28;20146;-77
2023/03/13 03:03:40;;;;;;;15.25;3.97;;;8.70;99.90;;;;;;4993009;28;20100;-78
2023/03/13 03:06:06;;;;;;;15.00;4.07;;;9.00;99.90;;;;;;4992778;28;20042;-79
2023/03/13 03:08:32;;;;;;;9.52;3.03;;;8.70;99.90;;;;;;4992935;28;20034;-78
2023/03/13 03:10:58;;;;;;;10.27;2.83;;;8.70;99.90;;;;;;4992535;28;20046;-78
2023/03/13 03:13:24;;;;;;;9.15;2.90;;;8.80;99.90;;;;;;4992230;28;20042;-78
2023/03/13 03:15:50;;;;;;;9.10;2.83;;;8.80;99.90;;;;;;4992993;28;20042;-79
2023/03/13 03:18:15;;;;;;;14.35;3.42;;;8.80;99.90;;;;;;4992514;28;20375;-78
2023/03/13 03:20:41;;;;;;;6.45;2.65;;;8.80;99.90;;;;;;4992106;28;20046;-78
2023/03/13 03:23:07;;;;;;;7.00;2.90;;;9.00;99.90;;;;;;4992225;28;20050;-78
2023/03/13 03:25:32;;;;;;;8.30;3.22;;;9.20;99.90;;;;;;4992452;28;20062;-79
2023/03/13 03:27:58;;;;;;;9.10;3.13;;;8.80;99.90;;;;;;4992186;28;20047;-78
2023/03/13 03:30:23;;;;;;;9.23;2.75;;;9.10;99.90;;;;;;4992046;28;20050;-77
2023/03/13 03:32:49;;;;;;;7.53;3.17;;;8.90;99.90;;;;;;4992381;28;20394;-77
2023/03/13 03:35:15;;;;;;;11.32;3.20;;;8.80;99.90;;;;;;4990158;28;20097;-79
2023/03/13 03:37:40;;;;;;;9.52;3.10;;;8.90;99.90;;;;;;4992333;28;20398;-78
2023/03/13 03:40:07;;;;;;;7.13;3.13;;;8.90;99.90;;;;;;4974823;28;20046;-77
2023/03/13 03:42:33;;;;;;;11.27;3.17;;;8.90;99.90;;;;;;4990840;28;20140;-77
2023/03/13 03:44:58;;;;;;;7.38;3.00;;;8.90;99.90;;;;;;4992149;28;20046;-78
2023/03/13 03:47:24;;;;;;;9.15;3.17;;;9.70;99.90;;;;;;4974587;28;20513;-76
2023/03/13 03:49:49;;;;;;;7.43;2.55;;;9.00;99.90;;;;;;4992312;28;20046;-77
2023/03/13 03:52:16;;;;;;;7.72;2.75;;;9.50;99.90;;;;;;4991912;28;20671;-77
2023/03/13 03:54:41;;;;;;;6.45;2.88;;;9.70;99.90;;;;;;4991849;28;20128;-78
2023/03/13 03:57:07;;;;;;;7.18;2.53;;;9.10;99.90;;;;;;4991206;28;20129;-77
2023/03/13 03:59:32;;;;;;;7.55;2.72;;;9.20;99.90;;;;;;4991842;28;20046;-78
2023/03/13 04:01:58;;;;;;;6.95;2.83;;;9.20;99.90;;;;;;4974317;28;20054;-79
2023/03/13 04:04:24;;;;;;;6.32;2.05;;;9.90;99.90;;;;;;4991831;28;20526;-78
2023/03/13 04:06:50;;;;;;;7.25;2.85;;;9.30;99.90;;;;;;4974265;28;20057;-78
2023/03/13 04:09:16;;;;;;;4.72;2.63;;;9.40;99.90;;;;;;4991659;28;20394;-78
2023/03/13 04:11:42;;;;;;;6.20;2.63;;;9.30;99.90;;;;;;4991402;28;20053;-78
2023/03/13 04:14:07;;;;;;;6.18;3.03;;;9.90;99.90;;;;;;4974093;28;20204;-78
2023/03/13 04:16:33;;;;;;;4.60;2.78;;;9.60;99.90;;;;;;4991464;28;20624;-77
2023/03/13 04:18:59;;;;;;;9.82;3.15;;;9.50;99.90;;;;;;4991169;28;20125;-77
2023/03/13 04:21:24;;;;;;;7.57;4.10;;;9.60;99.90;;;;;;4974220;28;20180;-78
2023/03/13 04:23:50;;;;;;;7.25;3.92;;;9.60;99.90;;;;;;4991384;28;20210;-78
2023/03/13 04:26:16;;;;;;;6.13;3.65;;;9.70;99.90;;;;;;4991433;28;20078;-78
2023/03/13 04:28:41;;;;;;;8.40;4.18;;;9.80;99.90;;;;;;4953785;28;20124;-78
2023/03/13 04:31:07;;;;;;;8.18;5.10;;;10.60;99.90;;;;;;4972042;28;20043;-78
2023/03/13 04:33:35;;;;;;;8.60;5.72;;;10.30;99.90;;;;;;4971884;28;20589;-78
2023/03/13 04:36:01;;;;;;;12.23;5.90;;;9.90;99.90;;;;;;4971770;28;20848;-77
2023/03/13 04:38:27;;;;;;;10.95;5.93;;;10.30;99.90;;;;;;4971869;28;20043;-78
2023/03/13 04:40:52;;;;;;;13.00;6.28;;;10.00;99.90;;;;;;4975509;28;20589;-77
2023/03/13 04:43:18;;;;;;;12.60;6.53;;;10.50;99.90;;;;;;4972825;28;20399;-76
2023/03/13 04:45:45;;;;;;;12.50;6.10;;;10.10;99.90;;;;;;4990765;28;20038;-77
2023/03/13 04:48:11;;;;;;;10.88;6.28;;;10.20;99.90;;;;;;4991203;28;20054;-77
2023/03/13 04:50:36;;;;;;;14.13;7.50;;;10.40;99.90;;;;;;4990865;28;20053;-77
2023/03/13 04:53:02;;;;;;;11.48;6.35;;;10.60;99.90;;;;;;4990744;28;20081;-76
2023/03/13 04:55:27;;;;;;;14.55;6.15;;;10.30;99.90;;;;;;4990604;28;20050;-78
2023/03/13 04:57:53;;;;;;;9.73;5.35;;;10.80;99.90;;;;;;4990573;28;20510;-78
2023/03/13 05:00:19;;;;;;;8.35;4.70;;;10.90;99.90;;;;;;4990216;28;20049;-77
2023/03/13 05:02:44;;;;;;;10.52;4.93;;;10.50;99.90;;;;;;4990988;28;20464;-77
2023/03/13 05:05:10;;;;;;;9.60;5.75;;;11.10;99.90;;;;;;4990844;28;20073;-77
2023/03/13 05:07:36;;;;;;;12.90;5.63;;;11.00;99.90;;;;;;4990810;28;20093;-77
2023/03/13 05:10:02;;;;;;;10.25;5.05;;;11.20;99.90;;;;;;4990714;28;20101;-78
2023/03/13 05:12:27;;;;;;;13.23;5.88;;;10.80;99.90;;;;;;4990213;28;20077;-78
2023/03/13 05:14:53;;;;;;;16.02;4.93;;;10.80;99.90;;;;;;4990129;28;20046;-78
2023/03/13 05:17:18;;;;;;;9.00;3.78;;;11.40;99.90;;;;;;4990758;28;20111;-79
2023/03/13 05:19:44;;;;;;;8.57;3.85;;;11.10;99.90;;;;;;4990519;28;20490;-77
2023/03/13 05:22:10;;;;;;;15.13;4.95;;;10.90;99.90;;;;;;4990961;28;20050;-78
2023/03/13 05:24:35;;;;;;;16.38;4.82;;;11.40;99.90;;;;;;4990682;28;20042;-76
2023/03/13 05:27:01;;;;;;;14.98;4.43;;;11.30;99.90;;;;;;5005038;28;20101;-78
2023/03/13 05:29:27;;;;;;;6.65;3.25;;;11.10;99.90;;;;;;4989965;28;20047;-77
2023/03/13 05:31:52;;;;;;;11.35;3.50;;;11.10;99.90;;;;;;4990095;28;20117;-78
2023/03/13 05:34:18;;;;;;;6.72;2.70;;;11.10;99.90;;;;;;4990369;28;20057;-77
2023/03/13 05:36:44;;;;;;;10.43;3.03;;;11.50;99.90;;;;;;4989658;28;20087;-78
2023/03/13 05:39:09;;;;;;;11.93;3.38;;;11.10;99.90;;;;;;4990163;28;20089;-77
2023/03/13 05:41:35;;;;;;;10.55;3.65;;;11.40;99.90;;;;;;4990114;28;20101;-76
2023/03/13 05:44:01;;;;;;;10.98;3.38;;;11.20;99.90;;;;;;4990061;28;20046;-79
2023/03/13 05:46:26;;;;;;;9.70;3.10;;;11.40;99.90;;;;;;4990110;28;20207;-77
2023/03/13 05:48:52;;;;;;;7.25;2.78;;;11.50;99.90;;;;;;4990518;28;20394;-77
2023/03/13 05:51:18;;;;;;;11.07;3.60;;;11.20;99.90;;;;;;4972679;28;20054;-78
2023/03/13 05:53:43;;;;;;;14.00;3.33;;;11.20;99.90;;;;;;4990149;28;20050;-78
2023/03/13 05:56:09;;;;;;;12.18;2.97;;;11.40;99.90;;;;;;4990080;28;20069;-77
2023/03/13 05:58:35;;;;;;;14.45;3.60;;;11.40;99.90;;;;;;4990076;28;20054;-76
2023/03/13 06:01:12;;;;;;;15.35;3.00;;;11.70;99.90;;;;;;4989805;28;20831;-78
2023/03/13 06:03:37;;;;;;;12.85;3.17;;;11.20;99.90;;;;;;4989953;28;20046;-76
2023/03/13 06:06:03;;;;;;;10.02;3.10;;;11.30;99.90;;;;;;4991033;28;20397;-77
2023/03/13 06:08:29;;;;;;;10.38;3.20;;;11.20;99.90;;;;;;4976657;28;20474;-79
2023/03/13 06:10:58;;;;;;;10.13;3.33;;;11.10;99.90;;;;;;4994071;28;20043;-79
2023/03/13 06:13:24;;;;;;;14.57;4.55;;;11.10;99.90;;;;;;4993675;28;20096;-77
2023/03/13 06:15:54;;;;;;;12.05;4.80;;;11.30;99.90;;;;;;4993504;28;20625;-76
2023/03/13 06:18:21;;;;;;;10.73;3.40;;;11.70;99.90;;;;;;4993668;28;20181;-78
2023/03/13 06:20:48;;;;;;;17.92;3.60;;;11.10;99.90;;;;;;4993539;28;20398;-77
2023/03/13 06:23:13;;;;;;;9.82;3.00;;;11.10;99.90;;;;;;4993724;28;20050;-77
2023/03/13 06:25:39;;;;;;;13.20;3.70;;;11.40;99.90;;;;;;4993590;28;20034;-77
2023/03/13 06:28:05;;;;;;;9.85;3.35;;;11.10;99.90;;;;;;5004720;28;20125;-77
2023/03/13 06:30:30;;;;;;;13.02;3.83;;;11.10;99.90;;;;;;5012782;28;20042;-77
2023/03/13 06:32:57;;;;;;;12.90;4.28;;;11.20;99.90;;;;;;4979098;28;20070;-77
2023/03/13 06:35:24;;;;;;;9.95;4.68;;;11.10;99.90;;;;;;4997328;28;20512;-78
2023/03/13 06:37:50;;;;;;;9.75;3.80;;;11.10;99.90;;;;;;4993538;28;20078;-78
2023/03/13 06:40:15;;;;;;;10.98;4.45;;;11.60;99.90;;;;;;4993132;28;20392;-76
2023/03/13 06:42:41;;;;;;;10.20;4.60;;;11.30;99.90;;;;;;4993023;28;20481;-80
2023/03/13 06:45:07;;;;;;;14.38;4.97;;;11.30;99.90;;;;;;4993341;28;20054;-78
2023/03/13 06:47:33;;;;;;;16.38;4.15;;;11.30;99.90;;;;;;4993357;28;20054;-79
2023/03/13 06:49:58;;;;;;;12.80;4.15;;;11.70;99.90;;;;;;5008530;28;20058;-78
2023/03/13 06:52:24;;;;;;;11.32;3.70;;;11.40;99.90;;;;;;4993396;28;20199;-77
2023/03/13 06:54:50;;;;;;;15.73;4.07;;;11.80;99.90;;;;;;4993482;28;20097;-78
2023/03/13 06:57:16;;;;;;;17.98;4.20;;;11.50;99.90;;;;;;4993324;28;20512;-76
2023/03/13 06:59:41;;;;;;;10.90;4.00;;;11.40;99.90;;;;;;4993081;28;20048;-77
2023/03/13 07:02:10;;;;;;;13.85;3.58;;;11.70;99.90;;;;;;4992847;28;20054;-77
2023/03/13 07:04:36;;;;;;;10.75;3.72;;;11.50;99.90;;;;;;4992528;28;20042;-77
2023/03/13 07:07:02;;;;;;;18.05;3.90;;;11.50;99.90;;;;;;4992755;28;20136;-77
2023/03/13 07:09:28;;;;;;;13.48;3.72;;;11.60;99.90;;;;;;4993200;28;20125;-78
2023/03/13 07:11:54;;;;;;;7.50;3.20;;;11.50;99.90;;;;;;4993023;28;20129;-77
2023/03/13 07:14:19;;;;;;;14.68;4.53;;;11.40;99.90;;;;;;4992817;28;20097;-77
2023/03/13 07:16:45;;;;;;;19.50;3.17;;;12.00;99.90;;;;;;4992378;28;20109;-76
2023/03/13 07:19:11;;;;;;;10.77;3.10;;;11.90;99.90;;;;;;4991972;28;20133;-79
2023/03/13 07:21:37;;;;;;;13.02;3.38;;;11.50;99.90;;;;;;4993206;28;20039;-79
2023/03/13 07:24:03;;;;;;;12.82;3.50;;;11.50;99.90;;;;;;4991804;28;20057;-78
2023/03/13 07:26:29;;;;;;;9.95;3.42;;;11.50;99.90;;;;;;4992442;28;20043;-78
2023/03/13 07:28:55;;;;;;;6.07;2.83;;;11.70;99.90;;;;;;4975389;28;20050;-82
2023/03/13 07:31:22;;;;;;;10.98;3.17;;;11.50;99.90;;;;;;4992253;28;20544;-77
2023/03/13 07:33:51;;;;;;;11.93;3.10;;;11.50;99.90;;;;;;4992857;28;20117;-76
2023/03/13 07:36:16;;;;;;;9.43;2.67;;;11.70;99.90;;;;;;4990151;28;20109;-77
2023/03/13 07:38:42;;;;;;;15.52;3.53;;;11.50;99.90;;;;;;4992397;28;20480;-78
2023/03/13 07:41:11;;;;;;;21.08;3.85;;;11.50;99.90;;;;;;4991858;28;20050;-76
2023/03/13 07:43:37;;;;;;;11.35;3.50;;;11.50;99.90;;;;;;4996596;28;20041;-78
2023/03/13 07:46:05;;;;;;;15.90;3.92;;;11.40;99.90;;;;;;4992049;28;20497;-77
2023/03/13 07:48:38;;;;;;;18.15;3.55;;;11.40;99.90;;;;;;4991852;28;20584;-79
2023/03/13 07:51:06;;;;;;;10.73;3.28;;;11.40;99.90;;;;;;4974902;28;20093;-78
2023/03/13 07:53:32;;;;;;;8.25;2.50;;;11.70;99.90;;;;;;4991627;28;20073;-78
2023/03/13 07:55:59;;;;;;;8.38;2.92;;;11.40;99.90;;;;;;4991873;28;20058;-78
2023/03/13 07:58:28;;;;;;;9.32;2.63;;;11.50;99.90;;;;;;5006784;28;20495;-77
2023/03/13 08:00:54;;;;;;;8.60;2.17;;;11.40;99.90;;;;;;4991604;28;20069;-78
2023/03/13 08:03:21;;;;;;;8.90;1.80;;;11.30;99.90;;;;;;4991652;28;20129;-78
2023/03/13 08:05:47;;;;;;;11.65;2.10;;;11.30;99.90;;;;;;4991980;28;20050;-78
2023/03/13 08:08:12;;;;;;;9.00;2.17;;;11.40;99.90;;;;;;4991425;28;20057;-77
2023/03/13 08:10:38;;;;;;;7.70;2.28;;;11.40;99.90;;;;;;5006988;28;20053;-78
2023/03/13 08:13:04;;;;;;;8.40;2.40;;;11.40;99.90;;;;;;4991652;28;20057;-81
2023/03/13 08:15:29;;;;;;;6.05;2.05;;;11.50;99.90;;;;;;4991604;28;20496;-80
2023/03/13 08:17:56;;;;;;;11.98;2.53;;;11.50;99.90;;;;;;4989568;28;20137;-77
2023/03/13 08:20:22;;;;;;;6.55;1.95;;;11.50;99.90;;;;;;4991627;28;20124;-81
2023/03/13 08:22:49;;;;;;;8.15;2.00;;;11.50;99.90;;;;;;4973937;28;20054;-77
2023/03/13 08:25:15;;;;;;;12.40;2.92;;;11.60;99.90;;;;;;4991486;28;20057;-77
2023/03/13 08:27:41;;;;;;;7.95;1.80;;;11.60;99.90;;;;;;4973932;28;20588;-80
2023/03/13 08:30:07;;;;;;;8.20;2.03;;;11.80;99.90;;;;;;4973453;28;20049;-79
2023/03/13 08:32:34;;;;;;;7.93;2.30;;;11.70;99.90;;;;;;4990189;28;20048;-78
2023/03/13 08:34:59;;;;;;;11.10;2.42;;;11.80;99.90;;;;;;4994239;28;20597;-76
2023/03/13 08:37:25;;;;;;;4.28;1.85;;;11.80;99.90;;;;;;4971513;28;20051;-79
2023/03/13 08:39:53;;;;;;;5.88;1.58;;;11.90;99.90;;;;;;4990582;28;20058;-78
2023/03/13 08:42:18;;;;;;;9.57;1.98;;;12.10;99.90;;;;;;4990424;28;20042;-77
2023/03/13 08:44:44;;;;;;;5.75;1.60;;;12.10;99.90;;;;;;4991190;28;20057;-75
2023/03/13 08:47:10;;;;;;;6.82;2.25;;;12.20;99.90;;;;;;4990833;28;20051;-76
2023/03/13 08:49:36;;;;;;;7.43;1.83;;;12.20;99.90;;;;;;4990712;28;20042;-75
2023/03/13 08:52:06;;;;;;;5.55;0.98;;;12.40;99.90;;;;;;4990934;28;20046;-74
2023/03/13 08:54:32;;;;;;;7.90;2.00;;;12.30;99.90;;;;;;4973482;28;20042;-77
2023/03/13 08:57:01;;;;;;;5.32;1.60;;;12.60;99.90;;;;;;4990951;28;20050;-79
2023/03/13 08:59:27;;;;;;;4.18;1.25;;;12.50;99.90;;;;;;4991484;28;20050;-78
2023/03/13 09:01:53;;;;;;;4.63;1.10;;;12.60;99.90;;;;;;4974070;28;20065;-77
2023/03/13 09:04:19;;;;;;;3.85;1.17;;;12.60;99.90;;;;;;4991436;28;20054;-78
2023/03/13 09:06:44;;;;;;;4.43;1.30;;;12.50;99.90;;;;;;4991710;28;20057;-77
2023/03/13 09:09:11;;;;;;;5.65;1.38;;;12.50;99.90;;;;;;4991216;28;20476;-83
2023/03/13 09:11:38;;;;;;;5.50;1.40;;;12.50;99.90;;;;;;4991796;28;20131;-80
2023/03/13 09:14:04;;;;;;;8.23;1.48;;;12.40;99.90;;;;;;5000001;28;20058;-80
2023/03/13 09:16:32;;;;;;;6.57;1.85;;;12.40;99.90;;;;;;4971884;28;20050;-79
2023/03/13 09:18:58;;;;;;;8.00;1.80;;;12.40;99.90;;;;;;4987081;28;20141;-80
2023/03/13 09:21:30;;;;;;;11.77;1.95;;;12.30;99.90;;;;;;4973576;28;20049;-78
2023/03/13 09:23:56;;;;;;;11.55;1.77;;;12.30;99.90;;;;;;4990596;28;20064;-78
2023/03/13 09:26:22;;;;;;;9.57;1.85;;;12.20;99.90;;;;;;4990733;28;20499;-77
2023/03/13 09:28:49;;;;;;;10.20;2.47;;;12.50;99.90;;;;;;4990632;28;20053;-78
2023/03/13 09:31:20;;;;;;;10.02;1.73;;;12.30;99.90;;;;;;4990696;28;20070;-77
2023/03/13 09:33:47;;;;;;;11.98;2.20;;;12.10;99.90;;;;;;4990357;28;20047;-79
2023/03/13 09:36:13;;;;;;;8.38;1.95;;;12.20;99.90;;;;;;4990424;28;20062;-78
2023/03/13 09:38:39;;;;;;;10.70;2.20;;;12.10;99.90;;;;;;4990503;28;20647;-81
2023/03/13 09:41:52;;;;;;;9.23;2.35;;;12.10;99.90;;;;;;4974040;28;20085;-77
2023/03/13 09:44:26;;;;;;;14.55;2.95;;;12.20;99.90;;;;;;4915424;29;20048;-86
2023/03/13 09:47:24;;;;;;;8.32;2.38;;;12.20;99.90;;;;;;4899312;29;20056;-78
2023/03/13 09:49:59;;;;;;;13.50;1.90;;;12.20;99.90;;;;;;4914840;29;20523;-76
2023/03/13 09:52:32;;;;;;;14.38;2.88;;;12.30;99.90;;;;;;4914823;29;20067;-77
2023/03/13 09:55:14;;;;;;;16.60;2.05;;;12.40;99.90;;;;;;4914833;29;20056;-76
2023/03/13 09:57:51;;;;;;;17.50;2.92;;;12.40;99.90;;;;;;4914780;29;20055;-78
2023/03/13 10:00:24;;;;;;;9.23;2.22;;;12.60;99.90;;;;;;4899096;29;20051;-78
2023/03/13 10:03:18;;;;;;;15.52;2.25;;;12.80;99.90;;;;;;4914555;29;20444;-77
2023/03/13 10:05:54;;;;;;;12.05;2.30;;;12.80;99.90;;;;;;4914268;29;20071;-76
2023/03/13 10:08:23;;;;;;;7.88;2.38;;;13.00;99.90;;;;;;4914697;29;20164;-77
2023/03/13 10:10:56;;;;;;;10.73;2.30;;;13.10;99.90;;;;;;4914446;28;20044;-78
2023/03/13 10:13:36;;;;;;;11.43;2.92;;;13.30;99.90;;;;;;4914578;29;20048;-77
2023/03/13 10:16:12;;;;;;;9.20;2.40;;;13.50;99.90;;;;;;4914370;29;20184;-78
2023/03/13 10:18:38;;;;;;;18.70;2.90;;;13.50;99.90;;;;;;4954824;28;20065;-78
2023/03/13 10:21:16;;;;;;;14.73;2.17;;;13.60;99.90;;;;;;4993318;28;20097;-77
2023/03/13 10:23:53;;;;;;;16.88;2.90;;;13.90;99.90;;;;;;4976190;28;20054;-78
2023/03/13 10:26:24;;;;;;;15.70;3.17;;;13.80;99.90;;;;;;4993864;28;20049;-78
2023/03/13 10:28:50;;;;;;;15.25;2.45;;;13.80;99.90;;;;;;4993743;28;20057;-77
2023/03/13 10:31:33;;;;;;;13.05;2.72;;;13.90;99.90;;;;;;4993467;28;20497;-79
2023/03/13 10:34:08;;;;;;;17.20;3.00;;;13.90;99.90;;;;;;4993508;28;20460;-82
2023/03/13 10:36:45;;;;;;;12.73;2.25;;;14.10;99.90;;;;;;4993377;28;20065;-82
2023/03/13 10:39:22;;;;;;;11.15;2.88;;;13.90;99.90;;;;;;4993526;28;20061;-79
2023/03/13 10:41:50;;;;;;;16.77;3.15;;;14.00;99.90;;;;;;4992243;28;20117;-78
2023/03/13 10:44:20;;;;;;;15.15;2.60;;;14.00;99.90;;;;;;4976438;28;20529;-79
2023/03/13 10:46:48;;;;;;;20.77;3.33;;;13.80;99.90;;;;;;4993404;28;20042;-79
2023/03/13 10:49:14;;;;;;;19.38;2.70;;;13.70;99.90;;;;;;4993690;28;20046;-78
2023/03/13 10:51:48;;;;;;;13.60;2.75;;;13.80;99.90;;;;;;4993463;28;20405;-78
2023/03/13 10:54:34;;;;;;;18.65;3.40;;;13.50;99.90;;;;;;4993495;28;20085;-77
2023/03/13 10:57:17;;;;;;;16.92;2.78;;;13.60;99.90;;;;;;4993319;28;20145;-77
2023/03/13 10:59:46;;;;;;;16.27;3.08;;;13.80;99.90;;;;;;4975830;28;20141;-78
2023/03/13 11:02:32;;;;;;;14.32;2.58;;;13.70;99.90;;;;;;4993253;28;20069;-77
2023/03/13 11:04:58;;;;;;;11.93;2.30;;;13.70;99.90;;;;;;4992861;28;20176;-77
2023/03/13 11:07:29;;;;;;;14.60;2.58;;;13.60;99.90;;;;;;4992914;28;20125;-77
2023/03/13 11:10:14;;;;;;;15.98;2.88;;;13.60;99.90;;;;;;4992768;28;20046;-76
2023/03/13 11:12:50;;;;;;;12.63;2.35;;;13.70;99.90;;;;;;4992996;28;20053;-80
2023/03/13 11:15:21;;;;;;;13.98;2.70;;;13.80;99.90;;;;;;4981866;28;20077;-81
2023/03/13 11:18:18;;;;;;;15.13;2.55;;;13.80;99.90;;;;;;4992721;28;20082;-76
2023/03/13 11:20:45;;;;;;;18.85;2.38;;;13.80;99.90;;;;;;4912952;29;20056;-77
2023/03/13 11:23:26;;;;;;;14.32;2.83;;;13.80;99.90;;;;;;4913538;29;20416;-79
2023/03/13 11:26:35;;;;;;;12.07;2.60;;;13.70;99.90;;;;;;4913476;29;20087;-77
2023/03/13 11:29:22;;;;;;;12.23;2.03;;;13.80;99.90;;;;;;4919300;29;20055;-79
2023/03/13 11:31:57;;;;;;;12.32;2.47;;;13.70;99.90;;;;;;4932470;29;20060;-76
2023/03/13 11:34:42;;;;;;;9.52;2.05;;;13.70;99.90;;;;;;4932448;29;20075;-76
2023/03/13 11:37:10;;;;;;;12.52;3.50;;;13.70;99.90;;;;;;4931657;29;20066;-77
2023/03/13 11:39:53;;;;;;;8.55;1.60;;;14.00;99.90;;;;;;4932124;29;20102;-80
2023/03/13 11:42:24;;;;;;;14.75;2.05;;;13.80;99.90;;;;;;4932040;29;20048;-76
2023/03/13 11:45:00;;;;;;;12.07;1.95;;;14.00;99.90;;;;;;4913277;29;20060;-81
2023/03/13 11:47:28;;;;;;;11.02;2.28;;;14.00;99.90;;;;;;4915497;29;20071;-77
2023/03/13 11:50:12;;;;;;;11.55;2.05;;;14.00;99.90;;;;;;4913478;29;20052;-83
2023/03/13 11:52:42;;;;;;;11.57;2.25;;;14.10;99.90;;;;;;4912705;29;20520;-80
2023/03/13 11:55:16;;;;;;;9.70;2.10;;;14.10;99.90;;;;;;4912947;29;20123;-79
2023/03/13 11:57:54;;;;;;;9.88;2.15;;;14.00;99.90;;;;;;4938563;28;20454;-79
2023/03/13 12:00:21;;;;;;;13.38;2.08;;;14.00;99.90;;;;;;4987813;28;20098;-79
2023/03/13 12:02:54;;;;;;;17.83;2.20;;;14.10;99.90;;;;;;4972722;28;20101;-83
2023/03/13 12:05:20;;;;;;;12.82;2.17;;;14.10;99.90;;;;;;4971972;28;20058;-81
2023/03/13 12:08:03;;;;;;;10.63;1.92;;;14.10;99.90;;;;;;4972211;28;20047;-80
2023/03/13 12:10:39;;;;;;;13.57;2.20;;;14.00;99.90;;;;;;4972429;28;20662;-77
2023/03/13 12:13:47;;;;;;;9.68;2.83;;;14.10;99.90;;;;;;4972081;28;20054;-79
2023/03/13 12:16:20;;;;;;;10.52;1.83;;;14.00;99.90;;;;;;4931291;29;20070;-80
2023/03/13 12:18:48;;;;;;;16.95;2.97;;;14.20;99.90;;;;;;4936050;28;20050;-78
2023/03/13 12:21:49;;;;;;;13.90;2.58;;;14.30;99.90;;;;;;4950275;29;20050;-81
2023/03/13 12:24:36;;;;;;;16.42;2.60;;;14.30;99.90;;;;;;4874526;29;20060;-78
2023/03/13 12:27:21;;;;;;;14.93;2.53;;;14.30;99.90;;;;;;4858565;29;20065;-80
2023/03/13 12:29:57;;;;;;;16.58;2.72;;;14.20;99.90;;;;;;4855951;29;20061;-80
2023/03/13 12:32:59;;;;;;;14.23;2.78;;;14.20;99.90;;;;;;4840578;29;20085;-76
2023/03/13 12:35:27;;;;;;;14.52;3.13;;;14.30;99.90;;;;;;4855769;29;20060;-78
2023/03/13 12:38:30;;;;;;;14.68;2.63;;;14.30;99.90;;;;;;4866793;29;20057;-74
2023/03/13 12:41:13;;;;;;;19.50;3.15;;;14.40;99.90;;;;;;4855610;29;20089;-78
2023/03/13 12:43:41;;;;;;;12.75;2.92;;;14.50;99.90;;;;;;4865539;29;20051;-76
2023/03/13 12:46:35;;;;;;;19.13;3.10;;;14.50;99.90;;;;;;4858711;29;20065;-77
2023/03/13 12:49:33;;;;;;;14.45;3.00;;;14.60;99.90;;;;;;4874274;29;20081;-76
2023/03/13 12:52:13;;;;;;;18.58;3.65;;;14.70;99.90;;;;;;4863803;29;20065;-78
2023/03/13 12:55:18;;;;;;;18.88;3.75;;;14.60;99.90;;;;;;4855813;29;20096;-78
2023/03/13 12:58:02;;;;;;;21.17;3.33;;;14.60;99.90;;;;;;4876447;29;20060;-73